Time;durP1;ratioP1;P1;durP2;ratioP2;P2;SDS_P1;SDS_P2;PMS_P1;PMS_P2;Temp;Humidity;BMP_temperature;BMP_pressure;BME280_temperature;BME280_humidity;BME280_pressure;Samples;Min_cycle;Max_cycle;Signal;HPM_P1;HPM_P2
2022/03/01 00:00:15;;;;;;;28.50;13.38;;;;;;;;;;4976616;28;20064;-80
2022/03/01 00:02:41;;;;;;;28.75;13.95;;;;;;;;;;4994117;28;20039;-80
2022/03/01 00:05:06;;;;;;;28.45;13.55;;;;;;;;;;4971838;28;20030;-80
2022/03/01 00:07:32;;;;;;;23.08;12.93;;;;;;;;;;4979252;28;20034;-77
2022/03/01 00:09:57;;;;;;;26.42;13.82;;;;;;;;;;4976205;28;20038;-79
2022/03/01 00:12:23;;;;;;;23.95;14.18;;;;;;;;;;4993673;28;20030;-80
2022/03/01 00:14:48;;;;;;;25.05;12.57;;;;;;;;;;4993710;28;20053;-79
2022/03/01 00:17:14;;;;;;;23.92;13.32;;;;;;;;;;4976587;28;20165;-80
2022/03/01 00:19:39;;;;;;;26.30;14.40;;;;;;;;;;4993270;28;20108;-79
2022/03/01 00:22:05;;;;;;;26.67;12.27;;;;;;;;;;4993565;28;20062;-77
2022/03/01 00:24:30;;;;;;;21.88;13.32;;;;;;;;;;4993519;28;20042;-77
2022/03/01 00:26:56;;;;;;;26.13;13.35;;;;;;;;;;4997624;28;20034;-79
2022/03/01 00:29:21;;;;;;;26.15;13.75;;;;;;;;;;4993450;28;20423;-79
2022/03/01 00:31:47;;;;;;;21.42;12.43;;;;;;;;;;4993433;28;20400;-80
2022/03/01 00:34:12;;;;;;;27.45;13.95;;;;;;;;;;4975843;28;20038;-80
2022/03/01 00:36:38;;;;;;;21.92;12.48;;;;;;;;;;4976600;28;20045;-79
2022/03/01 00:39:06;;;;;;;26.77;13.15;;;;;;;;;;4976054;28;20030;-79
2022/03/01 00:41:32;;;;;;;24.60;12.27;;;;;;;;;;4975886;28;20034;-80
2022/03/01 00:43:57;;;;;;;23.23;12.32;;;;;;;;;;4978968;28;20045;-79
2022/03/01 00:46:26;;;;;;;22.33;13.00;;;;;;;;;;4965962;28;20026;-79
2022/03/01 00:48:52;;;;;;;23.00;12.27;;;;;;;;;;4996430;28;20084;-79
2022/03/01 00:51:18;;;;;;;26.02;12.77;;;;;;;;;;4979064;28;20022;-79
2022/03/01 00:53:43;;;;;;;23.02;11.68;;;;;;;;;;4996711;28;20026;-78
2022/03/01 00:56:09;;;;;;;22.52;12.45;;;;;;;;;;4979245;28;20080;-80
2022/03/01 00:59:00;;;;;;;23.67;12.13;;;;;;;;;;5132698;27;20411;-79
2022/03/01 01:01:26;;;;;;;22.23;12.00;;;;;;;;;;5114784;28;20207;-79
2022/03/01 01:03:52;;;;;;;31.40;15.80;;;;;;;;;;5130965;28;20032;-79
2022/03/01 01:06:17;;;;;;;26.67;14.05;;;;;;;;;;5121256;28;20079;-80
2022/03/01 01:08:43;;;;;;;22.58;11.77;;;;;;;;;;5133213;27;20069;-79
2022/03/01 01:11:08;;;;;;;22.52;12.32;;;;;;;;;;5150033;27;20036;-79
2022/03/01 01:13:34;;;;;;;24.85;13.23;;;;;;;;;;5135120;27;20062;-79
2022/03/01 01:15:59;;;;;;;22.73;12.77;;;;;;;;;;5131445;28;20500;-80
2022/03/01 01:18:25;;;;;;;19.77;11.18;;;;;;;;;;5131088;28;20158;-80
2022/03/01 01:20:51;;;;;;;22.42;12.40;;;;;;;;;;5131016;28;20031;-79
2022/03/01 01:23:16;;;;;;;18.85;11.95;;;;;;;;;;5131046;28;20027;-79
2022/03/01 01:25:42;;;;;;;22.50;11.93;;;;;;;;;;5132393;27;20420;-80
2022/03/01 01:28:08;;;;;;;23.83;11.60;;;;;;;;;;5138366;27;20035;-78
2022/03/01 01:30:34;;;;;;;21.35;11.77;;;;;;;;;;5131969;27;20368;-79
2022/03/01 01:32:59;;;;;;;22.50;12.55;;;;;;;;;;5130595;28;20023;-79
2022/03/01 01:35:28;;;;;;;22.63;12.05;;;;;;;;;;5131024;28;20452;-79
2022/03/01 01:37:54;;;;;;;21.80;12.43;;;;;;;;;;5113725;28;20036;-78
2022/03/01 01:40:23;;;;;;;21.08;11.27;;;;;;;;;;5130854;27;20088;-79
2022/03/01 01:42:49;;;;;;;22.38;13.07;;;;;;;;;;5130661;28;20031;-79
2022/03/01 01:45:14;;;;;;;21.35;12.07;;;;;;;;;;5130552;28;20080;-79
2022/03/01 01:47:40;;;;;;;20.88;11.43;;;;;;;;;;5118589;28;20015;-79
2022/03/01 01:50:06;;;;;;;24.20;12.15;;;;;;;;;;5138989;28;20027;-80
2022/03/01 01:52:32;;;;;;;20.15;11.20;;;;;;;;;;5130464;28;20024;-79
2022/03/01 01:54:57;;;;;;;22.25;11.25;;;;;;;;;;5113521;28;20114;-80
2022/03/01 01:57:23;;;;;;;22.05;12.10;;;;;;;;;;5130075;28;20039;-80
2022/03/01 01:59:49;;;;;;;21.73;12.48;;;;;;;;;;5131468;27;20111;-79
2022/03/01 02:02:16;;;;;;;20.73;12.35;;;;;;;;;;5113176;28;20130;-79
2022/03/01 02:04:42;;;;;;;24.40;12.98;;;;;;;;;;5131637;27;20047;-79
2022/03/01 02:07:07;;;;;;;22.50;12.40;;;;;;;;;;5130558;27;20066;-79
2022/03/01 02:09:33;;;;;;;20.85;12.02;;;;;;;;;;5129182;28;20028;-79
2022/03/01 02:11:58;;;;;;;20.83;12.10;;;;;;;;;;5118763;28;20321;-79
2022/03/01 02:14:24;;;;;;;21.38;11.57;;;;;;;;;;5117574;28;20123;-80
2022/03/01 02:16:50;;;;;;;23.48;12.40;;;;;;;;;;5116099;28;20036;-79
2022/03/01 02:19:15;;;;;;;31.15;14.43;;;;;;;;;;5082617;28;20441;-80
2022/03/01 02:21:47;;;;;;;24.23;13.50;;;;;;;;;;5117461;28;20028;-79
2022/03/01 02:24:13;;;;;;;20.88;12.30;;;;;;;;;;5117442;28;20518;-80
2022/03/01 02:26:38;;;;;;;22.23;12.52;;;;;;;;;;5099029;28;20032;-79
2022/03/01 02:29:04;;;;;;;24.02;13.07;;;;;;;;;;5116037;28;20024;-79
2022/03/01 02:31:29;;;;;;;20.77;11.95;;;;;;;;;;5123534;28;20076;-79
2022/03/01 02:33:55;;;;;;;23.75;12.95;;;;;;;;;;5117238;28;20449;-79
2022/03/01 02:36:20;;;;;;;24.70;13.25;;;;;;;;;;5117204;28;20024;-79
2022/03/01 02:38:46;;;;;;;24.92;13.60;;;;;;;;;;5117262;28;20440;-79
2022/03/01 02:41:11;;;;;;;27.92;14.15;;;;;;;;;;5116323;28;20092;-79
2022/03/01 02:43:37;;;;;;;32.25;15.57;;;;;;;;;;5117048;28;20026;-79
2022/03/01 02:46:02;;;;;;;31.38;15.65;;;;;;;;;;5115567;28;20059;-79
2022/03/01 02:48:27;;;;;;;73.35;27.92;;;;;;;;;;5116892;28;20028;-79
2022/03/01 02:50:53;;;;;;;72.93;27.60;;;;;;;;;;5101945;28;20027;-80
2022/03/01 02:53:18;;;;;;;58.35;23.05;;;;;;;;;;5105184;28;20381;-79
2022/03/01 02:55:44;;;;;;;39.42;18.23;;;;;;;;;;5115520;28;20063;-79
2022/03/01 02:58:09;;;;;;;32.08;16.50;;;;;;;;;;5115283;28;20096;-79
2022/03/01 03:00:35;;;;;;;31.40;16.88;;;;;;;;;;5115445;28;20036;-79
2022/03/01 03:03:00;;;;;;;32.45;16.30;;;;;;;;;;5116622;28;20035;-79
2022/03/01 03:05:26;;;;;;;39.03;19.75;;;;;;;;;;5115971;28;20120;-79
2022/03/01 03:07:51;;;;;;;42.05;21.38;;;;;;;;;;5116456;28;20024;-79
2022/03/01 03:10:17;;;;;;;39.75;20.17;;;;;;;;;;5115233;28;20030;-79
2022/03/01 03:12:43;;;;;;;41.33;20.55;;;;;;;;;;5126385;28;20012;-79
2022/03/01 03:15:09;;;;;;;44.80;22.92;;;;;;;;;;5117559;28;20024;-79
2022/03/01 03:17:35;;;;;;;52.75;23.48;;;;;;;;;;5116156;28;20115;-79
2022/03/01 03:20:01;;;;;;;47.28;25.70;;;;;;;;;;5115793;28;20114;-79
2022/03/01 03:22:26;;;;;;;51.00;25.92;;;;;;;;;;5115601;28;20031;-80
2022/03/01 03:24:52;;;;;;;42.97;24.55;;;;;;;;;;5116104;28;20022;-79
2022/03/01 03:27:17;;;;;;;57.80;28.58;;;;;;;;;;5116008;28;20023;-79
2022/03/01 03:29:43;;;;;;;61.35;31.00;;;;;;;;;;5097818;28;20042;-79
2022/03/01 03:32:08;;;;;;;58.90;29.65;;;;;;;;;;5116298;28;20056;-79
2022/03/01 03:34:34;;;;;;;74.00;36.65;;;;;;;;;;5120708;28;20460;-79
2022/03/01 03:36:59;;;;;;;72.43;35.78;;;;;;;;;;5115926;28;20441;-79
2022/03/01 03:39:25;;;;;;;65.30;32.22;;;;;;;;;;5115893;28;20019;-79
2022/03/01 03:41:50;;;;;;;56.28;29.45;;;;;;;;;;5116135;28;20500;-78
2022/03/01 03:44:16;;;;;;;55.20;28.83;;;;;;;;;;5115584;28;20028;-78
2022/03/01 03:46:41;;;;;;;56.05;28.70;;;;;;;;;;5115831;28;20359;-79
2022/03/01 03:49:07;;;;;;;54.10;30.05;;;;;;;;;;5116264;28;20028;-79
2022/03/01 03:51:33;;;;;;;65.90;33.22;;;;;;;;;;5116337;28;20094;-78
2022/03/01 03:53:59;;;;;;;68.57;35.47;;;;;;;;;;5116220;28;20015;-79
2022/03/01 03:56:24;;;;;;;77.68;37.65;;;;;;;;;;5106247;28;20032;-79
2022/03/01 03:58:50;;;;;;;73.22;37.17;;;;;;;;;;5096967;28;20419;-79
2022/03/01 04:01:16;;;;;;;72.85;36.30;;;;;;;;;;5114785;28;20028;-79
2022/03/01 04:03:41;;;;;;;74.53;35.25;;;;;;;;;;5114277;28;20032;-79
2022/03/01 04:06:07;;;;;;;64.70;34.35;;;;;;;;;;5114175;28;20041;-79
2022/03/01 04:08:32;;;;;;;69.95;34.72;;;;;;;;;;5115364;28;20092;-78
2022/03/01 04:10:58;;;;;;;68.72;34.63;;;;;;;;;;5148926;27;20118;-79
2022/03/01 04:13:24;;;;;;;70.95;35.45;;;;;;;;;;5124237;28;20071;-79
2022/03/01 04:15:50;;;;;;;63.30;33.13;;;;;;;;;;5135174;28;20028;-78
2022/03/01 04:18:15;;;;;;;61.33;31.23;;;;;;;;;;5115148;28;20381;-78
2022/03/01 04:20:41;;;;;;;56.67;31.40;;;;;;;;;;5115443;28;20028;-78
2022/03/01 04:23:06;;;;;;;60.22;30.58;;;;;;;;;;5115245;28;20015;-77
2022/03/01 04:25:32;;;;;;;53.75;27.95;;;;;;;;;;5114763;28;20034;-78
2022/03/01 04:27:57;;;;;;;52.97;26.23;;;;;;;;;;5113914;28;20024;-78
2022/03/01 04:30:23;;;;;;;52.65;25.50;;;;;;;;;;5115284;28;20023;-79
2022/03/01 04:32:50;;;;;;;47.88;24.30;;;;;;;;;;5114609;28;20465;-78
2022/03/01 04:35:15;;;;;;;45.80;22.70;;;;;;;;;;5115045;28;20028;-78
2022/03/01 04:37:41;;;;;;;42.38;22.60;;;;;;;;;;5121319;28;20084;-78
2022/03/01 04:40:08;;;;;;;48.90;28.02;;;;;;;;;;5113412;28;20019;-78
2022/03/01 04:42:34;;;;;;;46.38;27.08;;;;;;;;;;5113559;28;20035;-77
2022/03/01 04:45:00;;;;;;;48.78;26.27;;;;;;;;;;5080017;28;20114;-79
2022/03/01 04:47:44;;;;;;;52.17;25.02;;;;;;;;;;5113901;28;20035;-79
2022/03/01 04:50:09;;;;;;;37.45;21.45;;;;;;;;;;5113533;28;20039;-79
2022/03/01 04:52:35;;;;;;;48.67;25.17;;;;;;;;;;5114667;28;20114;-78
2022/03/01 04:55:00;;;;;;;46.42;24.95;;;;;;;;;;5096478;28;20032;-78
2022/03/01 04:57:26;;;;;;;48.30;26.40;;;;;;;;;;5121957;28;20097;-79
2022/03/01 04:59:52;;;;;;;54.65;26.33;;;;;;;;;;5114844;28;20020;-78
2022/03/01 05:02:18;;;;;;;48.85;25.70;;;;;;;;;;5096590;28;20027;-78
2022/03/01 05:04:43;;;;;;;43.33;23.85;;;;;;;;;;5113589;28;20024;-78
2022/03/01 05:07:09;;;;;;;46.47;23.45;;;;;;;;;;5096391;28;20092;-79
2022/03/01 05:09:35;;;;;;;42.95;22.08;;;;;;;;;;5114370;28;20027;-79
2022/03/01 05:12:00;;;;;;;39.40;21.85;;;;;;;;;;5114479;28;20035;-78
2022/03/01 05:14:26;;;;;;;44.65;22.35;;;;;;;;;;5113241;28;20084;-78
2022/03/01 05:16:51;;;;;;;43.03;22.58;;;;;;;;;;5113093;28;20360;-79
2022/03/01 05:19:17;;;;;;;45.03;24.48;;;;;;;;;;5118180;28;20016;-78
2022/03/01 05:21:42;;;;;;;48.70;24.38;;;;;;;;;;5096499;28;20035;-79
2022/03/01 05:24:08;;;;;;;50.58;23.65;;;;;;;;;;5113053;28;20110;-78
2022/03/01 05:26:34;;;;;;;46.17;24.35;;;;;;;;;;5113092;28;20047;-79
2022/03/01 05:29:00;;;;;;;47.90;24.63;;;;;;;;;;5094301;28;20059;-79
2022/03/01 05:31:25;;;;;;;54.90;28.73;;;;;;;;;;5079317;28;20134;-79
2022/03/01 05:33:52;;;;;;;56.13;28.38;;;;;;;;;;5076100;28;20040;-79
2022/03/01 05:36:18;;;;;;;57.88;30.33;;;;;;;;;;5092282;28;20085;-79
2022/03/01 05:38:43;;;;;;;56.30;29.05;;;;;;;;;;5094598;28;20044;-79
2022/03/01 05:41:09;;;;;;;56.20;27.40;;;;;;;;;;5119325;28;20031;-79
2022/03/01 05:43:36;;;;;;;51.28;26.15;;;;;;;;;;5094886;28;20425;-78
2022/03/01 05:46:01;;;;;;;53.80;26.02;;;;;;;;;;5096764;28;20032;-76
2022/03/01 05:48:27;;;;;;;45.92;24.15;;;;;;;;;;5080167;28;20147;-76
2022/03/01 05:50:53;;;;;;;52.38;25.17;;;;;;;;;;5096986;28;20032;-78
2022/03/01 05:53:19;;;;;;;45.15;23.23;;;;;;;;;;5113431;28;20467;-75
2022/03/01 05:55:44;;;;;;;48.65;24.17;;;;;;;;;;5117092;28;20023;-76
2022/03/01 05:58:10;;;;;;;49.10;24.45;;;;;;;;;;5113119;28;20098;-78
2022/03/01 06:00:41;;;;;;;57.75;25.75;;;;;;;;;;5120779;28;20031;-79
2022/03/01 06:03:07;;;;;;;49.33;23.77;;;;;;;;;;5116199;27;20130;-79
2022/03/01 06:05:36;;;;;;;48.40;23.52;;;;;;;;;;5111871;27;20209;-79
2022/03/01 06:08:02;;;;;;;58.55;27.50;;;;;;;;;;5114827;27;20038;-78
2022/03/01 06:10:27;;;;;;;53.20;28.35;;;;;;;;;;5108409;27;20444;-81
2022/03/01 06:12:53;;;;;;;101.18;45.70;;;;;;;;;;5115221;27;20031;-80
2022/03/01 06:15:18;;;;;;;121.97;58.33;;;;;;;;;;5093741;27;20059;-79
2022/03/01 06:17:49;;;;;;;81.72;40.50;;;;;;;;;;5092499;28;20047;-77
2022/03/01 06:20:18;;;;;;;150.05;67.72;;;;;;;;;;5111634;27;20758;-78
2022/03/01 06:23:01;;;;;;;132.25;57.72;;;;;;;;;;5114193;28;20024;-80
2022/03/01 06:25:27;;;;;;;78.50;35.97;;;;;;;;;;5089917;28;20035;-79
2022/03/01 06:27:53;;;;;;;100.35;43.70;;;;;;;;;;5096853;27;20121;-79
2022/03/01 06:30:19;;;;;;;68.40;31.98;;;;;;;;;;5115527;27;20085;-78
2022/03/01 06:32:44;;;;;;;55.53;27.23;;;;;;;;;;5115703;27;20420;-79
2022/03/01 06:35:36;;;;;;;53.70;27.80;;;;;;;;;;5119747;27;20084;-82
2022/03/01 06:38:01;;;;;;;63.58;30.63;;;;;;;;;;5112735;27;20500;-80
2022/03/01 06:40:28;;;;;;;62.25;32.22;;;;;;;;;;5079032;27;20031;-79
2022/03/01 06:42:55;;;;;;;63.03;29.23;;;;;;;;;;5124079;27;20192;-80
2022/03/01 06:45:21;;;;;;;69.78;34.92;;;;;;;;;;5112341;28;20387;-80
2022/03/01 06:47:46;;;;;;;53.65;27.63;;;;;;;;;;5115819;27;20038;-80
2022/03/01 06:50:12;;;;;;;52.10;26.90;;;;;;;;;;5112294;27;20032;-78
2022/03/01 06:52:44;;;;;;;59.45;27.00;;;;;;;;;;5114858;27;20030;-79
2022/03/01 06:58:35;;;;;;;48.30;24.05;;;;;;;;;;5184167;22;20528;-77
2022/03/01 07:01:01;;;;;;;51.92;26.83;;;;;;;;;;5087382;27;20061;-76
2022/03/01 07:03:27;;;;;;;82.93;37.40;;;;;;;;;;5074645;28;20620;-75
2022/03/01 07:05:54;;;;;;;55.22;26.50;;;;;;;;;;5127813;27;20066;-80
2022/03/01 07:08:23;;;;;;;50.72;25.02;;;;;;;;;;5125819;27;20058;-79
2022/03/01 07:10:52;;;;;;;64.32;29.75;;;;;;;;;;5089849;27;20030;-77
2022/03/01 07:13:18;;;;;;;61.33;27.35;;;;;;;;;;5065795;28;20071;-77
2022/03/01 07:15:43;;;;;;;71.47;30.58;;;;;;;;;;5118760;27;20070;-75
2022/03/01 07:18:09;;;;;;;91.13;39.17;;;;;;;;;;5106555;28;20126;-72
2022/03/01 07:20:35;;;;;;;79.15;37.50;;;;;;;;;;5119284;27;20065;-75
2022/03/01 07:23:01;;;;;;;78.97;37.22;;;;;;;;;;5126831;27;20022;-77
2022/03/01 07:25:27;;;;;;;68.22;31.42;;;;;;;;;;5121725;27;20031;-77
2022/03/01 07:27:59;;;;;;;83.53;34.65;;;;;;;;;;5126082;27;20145;-76
2022/03/01 07:30:26;;;;;;;63.47;29.70;;;;;;;;;;5095091;28;20024;-75
2022/03/01 07:32:55;;;;;;;57.60;26.80;;;;;;;;;;5116870;27;20118;-77
2022/03/01 07:35:36;;;;;;;51.28;25.35;;;;;;;;;;5115829;28;20027;-76
2022/03/01 07:38:01;;;;;;;46.45;23.92;;;;;;;;;;5107612;27;20036;-77
2022/03/01 07:40:27;;;;;;;50.00;24.75;;;;;;;;;;5103532;28;20349;-76
2022/03/01 07:42:53;;;;;;;57.95;25.25;;;;;;;;;;5121049;28;20030;-79
2022/03/01 07:45:19;;;;;;;156.85;81.93;;;;;;;;;;5092799;28;20028;-82
2022/03/01 07:47:45;;;;;;;75.68;38.35;;;;;;;;;;5077580;28;20452;-81
2022/03/01 07:50:11;;;;;;;48.78;22.58;;;;;;;;;;5076755;28;20093;-82
2022/03/01 07:52:36;;;;;;;41.42;20.75;;;;;;;;;;5107141;28;20487;-81
2022/03/01 07:55:03;;;;;;;33.63;19.52;;;;;;;;;;5086893;28;20653;-82
2022/03/01 07:57:28;;;;;;;31.52;18.20;;;;;;;;;;5106841;27;20047;-78
2022/03/01 07:59:54;;;;;;;29.70;16.70;;;;;;;;;;5093656;27;20031;-78
2022/03/01 08:02:19;;;;;;;38.88;21.10;;;;;;;;;;5100248;28;20028;-76
2022/03/01 08:04:51;;;;;;;45.58;23.42;;;;;;;;;;5118284;27;20027;-76
2022/03/01 08:07:16;;;;;;;35.63;20.08;;;;;;;;;;5122727;27;20099;-79
2022/03/01 08:09:42;;;;;;;27.55;13.45;;;;;;;;;;5110318;27;20102;-78
2022/03/01 08:12:08;;;;;;;16.55;10.85;;;;;;;;;;5117824;27;20364;-75
2022/03/01 08:14:34;;;;;;;23.42;12.82;;;;;;;;;;5120270;27;20038;-79
2022/03/01 08:17:00;;;;;;;17.27;9.90;;;;;;;;;;5086019;28;20020;-77
2022/03/01 08:19:26;;;;;;;18.83;11.18;;;;;;;;;;5117753;27;20509;-80
2022/03/01 08:21:51;;;;;;;23.17;12.55;;;;;;;;;;5116769;27;20027;-80
2022/03/01 08:24:20;;;;;;;21.52;12.95;;;;;;;;;;5095905;27;20023;-81
2022/03/01 08:26:46;;;;;;;22.80;12.75;;;;;;;;;;5094804;28;20067;-79
2022/03/01 08:29:12;;;;;;;25.10;15.00;;;;;;;;;;5115809;27;20582;-75
2022/03/01 08:32:37;;;;;;;27.10;14.80;;;;;;;;;;5116890;27;20134;-81
2022/03/01 08:35:05;;;;;;;24.23;15.05;;;;;;;;;;5088902;28;20071;-81
2022/03/01 08:37:42;;;;;;;20.75;12.63;;;;;;;;;;5089242;22;20075;-82
2022/03/01 08:40:08;;;;;;;19.23;11.48;;;;;;;;;;5051339;28;20123;-82
2022/03/01 08:42:34;;;;;;;22.08;12.23;;;;;;;;;;5075960;28;20032;-82
2022/03/01 08:44:59;;;;;;;15.45;10.07;;;;;;;;;;5095426;28;20028;-81
2022/03/01 08:47:40;;;;;;;17.42;10.02;;;;;;;;;;5052129;28;20028;-80
2022/03/01 08:50:05;;;;;;;;;;;;;;;;;;5082147;28;20036;-81
2022/03/01 08:52:32;;;;;;;15.15;10.02;;;;;;;;;;5071744;28;19920;-80
2022/03/01 08:54:57;;;;;;;17.73;10.93;;;;;;;;;;5070054;28;20024;-81
2022/03/01 08:57:23;;;;;;;19.52;10.95;;;;;;;;;;5088188;28;20043;-80
2022/03/01 09:02:17;;;;;;;23.02;11.60;;;;;;;;;;5048335;22;20064;-82
2022/03/01 09:04:48;;;;;;;18.70;11.63;;;;;;;;;;5025063;28;20030;-81
2022/03/01 09:07:16;;;;;;;17.13;10.60;;;;;;;;;;5005137;28;20036;-81
2022/03/01 09:09:53;;;;;;;19.05;10.75;;;;;;;;;;5026540;28;20037;-83
2022/03/01 09:12:19;;;;;;;15.32;9.45;;;;;;;;;;5031557;28;20068;-81
2022/03/01 09:15:25;;;;;;;19.48;9.32;;;;;;;;;;5029335;28;20423;-81
2022/03/01 09:17:51;;;;;;;15.07;8.75;;;;;;;;;;5037373;28;20063;-81
2022/03/01 09:20:17;;;;;;;16.92;9.48;;;;;;;;;;5010587;28;20359;-81
2022/03/01 09:22:42;;;;;;;16.27;9.63;;;;;;;;;;5015709;28;20446;-81
2022/03/01 09:25:26;;;;;;;15.25;9.40;;;;;;;;;;4999357;28;20096;-81
2022/03/01 09:28:01;;;;;;;17.65;9.05;;;;;;;;;;4987005;28;20044;-84
2022/03/01 09:30:29;;;;;;;18.02;9.63;;;;;;;;;;4987742;28;20034;-79
2022/03/01 09:32:55;;;;;;;17.45;9.43;;;;;;;;;;5041573;28;20032;-81
2022/03/01 09:35:21;;;;;;;17.27;9.48;;;;;;;;;;4988398;28;20066;-82
2022/03/01 09:37:46;;;;;;;15.05;8.27;;;;;;;;;;5021861;28;20038;-82
2022/03/01 09:40:24;;;;;;;15.98;10.57;;;;;;;;;;5004455;28;20056;-79
2022/03/01 09:42:55;;;;;;;17.20;9.52;;;;;;;;;;5036974;28;20045;-80
2022/03/01 09:45:21;;;;;;;12.45;7.65;;;;;;;;;;5022986;28;20033;-82
2022/03/01 09:51:05;;;;;;;13.65;8.65;;;;;;;;;;4983033;28;20107;-81
2022/03/01 09:54:20;;;;;;;15.80;8.60;;;;;;;;;;5016972;28;20056;-80
2022/03/01 09:56:46;;;;;;;11.27;7.25;;;;;;;;;;5032836;28;20056;-83
2022/03/01 09:59:11;;;;;;;12.30;7.57;;;;;;;;;;5035875;28;20481;-81
2022/03/01 10:01:37;;;;;;;13.07;7.55;;;;;;;;;;5034483;28;20055;-82
2022/03/01 10:04:36;;;;;;;13.35;7.75;;;;;;;;;;5021580;28;20029;-81
2022/03/01 10:07:02;;;;;;;12.82;8.35;;;;;;;;;;5016792;28;20081;-82
2022/03/01 10:09:28;;;;;;;12.05;7.45;;;;;;;;;;5017143;28;20041;-82
2022/03/01 10:11:54;;;;;;;17.15;8.75;;;;;;;;;;5016764;28;20030;-81
2022/03/01 10:14:30;;;;;;;14.75;7.38;;;;;;;;;;5031970;28;20029;-81
2022/03/01 10:16:55;;;;;;;15.68;8.70;;;;;;;;;;5034196;28;20032;-83
2022/03/01 10:19:21;;;;;;;14.43;7.38;;;;;;;;;;5034762;28;20374;-82
2022/03/01 10:21:56;;;;;;;13.77;8.00;;;;;;;;;;5010523;28;20037;-82
2022/03/01 10:24:46;;;;;;;;;;;;;;;;;;;;;
2022/03/01 10:27:11;;;;;;;14.80;9.18;;;;;;;;;;5020026;28;20031;-81
2022/03/01 10:29:42;;;;;;;12.43;8.25;;;;;;;;;;5034609;28;20108;-81
2022/03/01 10:32:11;;;;;;;;;;;;;;;;;;5018765;28;20021;-82
2022/03/01 10:34:36;;;;;;;10.82;6.93;;;;;;;;;;5019049;28;19919;-82
2022/03/01 10:37:02;;;;;;;11.77;7.90;;;;;;;;;;5019303;28;20034;-81
2022/03/01 10:39:29;;;;;;;16.98;8.20;;;;;;;;;;5066053;28;20363;-83
2022/03/01 10:42:06;;;;;;;16.23;9.13;;;;;;;;;;5068161;28;20112;-84
2022/03/01 10:44:31;;;;;;;13.02;7.53;;;;;;;;;;5002889;28;20496;-81
2022/03/01 10:47:01;;;;;;;11.25;7.15;;;;;;;;;;4997830;28;20140;-82
2022/03/01 10:49:34;;;;;;;12.98;8.23;;;;;;;;;;5008270;28;20068;-81
2022/03/01 10:52:05;;;;;;;15.52;7.72;;;;;;;;;;4961738;28;20125;-81
2022/03/01 10:54:40;;;;;;;16.88;9.13;;;;;;;;;;4981187;28;20053;-81
2022/03/01 10:57:10;;;;;;;14.07;8.27;;;;;;;;;;5009776;28;20037;-82
2022/03/01 10:59:37;;;;;;;12.75;7.13;;;;;;;;;;5012440;28;20502;-82
2022/03/01 11:02:03;;;;;;;12.65;7.53;;;;;;;;;;5035883;28;20387;-82
2022/03/01 11:04:29;;;;;;;13.25;7.80;;;;;;;;;;5033321;28;20036;-81
2022/03/01 11:06:57;;;;;;;16.58;7.90;;;;;;;;;;5030868;28;20021;-81
2022/03/01 11:09:24;;;;;;;14.70;7.68;;;;;;;;;;5030675;28;20032;-81
2022/03/01 11:11:50;;;;;;;17.48;9.75;;;;;;;;;;5030303;28;20048;-80
2022/03/01 11:14:38;;;;;;;12.52;7.15;;;;;;;;;;5047177;28;20033;-82
2022/03/01 11:17:28;;;;;;;13.90;7.10;;;;;;;;;;5051613;28;20225;-82
2022/03/01 11:19:55;;;;;;;13.75;8.07;;;;;;;;;;5054930;28;20094;-80
2022/03/01 11:22:41;;;;;;;17.13;8.95;;;;;;;;;;5044107;28;20028;-80
2022/03/01 11:25:13;;;;;;;21.02;10.73;;;;;;;;;;5037795;28;20028;-81
2022/03/01 11:27:46;;;;;;;13.57;7.82;;;;;;;;;;5018571;28;20040;-81
2022/03/01 11:30:13;;;;;;;16.13;9.10;;;;;;;;;;5054319;28;20033;-81
2022/03/01 11:32:42;;;;;;;13.20;8.32;;;;;;;;;;5003833;28;20029;-79
2022/03/01 11:35:19;;;;;;;15.98;7.90;;;;;;;;;;5036511;28;20472;-81
2022/03/01 11:38:05;;;;;;;21.10;9.07;;;;;;;;;;5047984;28;20037;-82
2022/03/01 11:40:36;;;;;;;14.25;8.25;;;;;;;;;;5024690;28;20102;-80
2022/03/01 11:43:20;;;;;;;12.15;7.57;;;;;;;;;;5019332;28;20105;-82
2022/03/01 11:45:51;;;;;;;17.63;8.00;;;;;;;;;;5016367;28;20596;-82
2022/03/01 11:48:27;;;;;;;18.90;8.70;;;;;;;;;;5034838;28;20029;-80
2022/03/01 11:50:58;;;;;;;13.50;7.78;;;;;;;;;;5032687;28;20036;-80
2022/03/01 11:53:26;;;;;;;12.38;7.57;;;;;;;;;;5033089;28;20112;-79
2022/03/01 11:55:55;;;;;;;14.82;8.68;;;;;;;;;;5049505;28;20321;-84
2022/03/01 11:58:21;;;;;;;14.65;8.20;;;;;;;;;;4998949;28;20032;-82
2022/03/01 12:00:47;;;;;;;14.98;8.60;;;;;;;;;;5016973;28;20352;-83
2022/03/01 12:03:17;;;;;;;14.07;7.70;;;;;;;;;;5015871;28;20075;-82
2022/03/01 12:05:45;;;;;;;13.97;7.97;;;;;;;;;;5018245;28;20052;-81
2022/03/01 12:08:15;;;;;;;13.45;8.27;;;;;;;;;;5017532;28;20406;-80
2022/03/01 12:10:57;;;;;;;14.38;8.10;;;;;;;;;;5033401;28;20079;-79
2022/03/01 12:13:43;;;;;;;14.80;8.80;;;;;;;;;;5052554;28;20024;-82
2022/03/01 12:16:14;;;;;;;13.48;7.93;;;;;;;;;;5052657;28;20501;-80
2022/03/01 12:18:41;;;;;;;15.60;8.50;;;;;;;;;;5038136;28;20033;-78
2022/03/01 12:21:11;;;;;;;15.52;9.65;;;;;;;;;;5056808;28;20646;-77
2022/03/01 12:23:38;;;;;;;15.48;8.38;;;;;;;;;;5053160;28;20062;-77
2022/03/01 12:26:05;;;;;;;14.75;8.15;;;;;;;;;;5053178;28;20040;-77
2022/03/01 12:28:39;;;;;;;16.38;9.00;;;;;;;;;;5053488;28;20024;-76
2022/03/01 12:31:28;;;;;;;15.13;8.65;;;;;;;;;;5042581;28;20510;-77
2022/03/01 12:33:55;;;;;;;12.80;8.43;;;;;;;;;;5044039;28;20205;-80
2022/03/01 12:36:27;;;;;;;14.00;8.25;;;;;;;;;;5019489;28;20119;-79
2022/03/01 12:38:57;;;;;;;14.65;7.50;;;;;;;;;;5064585;28;20032;-81
2022/03/01 12:41:24;;;;;;;15.45;8.55;;;;;;;;;;5037836;28;20029;-80
2022/03/01 12:43:56;;;;;;;14.48;7.82;;;;;;;;;;5053749;28;20028;-80
2022/03/01 12:46:22;;;;;;;13.07;8.35;;;;;;;;;;5036940;28;20021;-79
2022/03/01 12:48:48;;;;;;;15.23;8.63;;;;;;;;;;5035742;28;20021;-78
2022/03/01 12:51:14;;;;;;;16.98;9.40;;;;;;;;;;5018907;28;20029;-78
2022/03/01 12:53:49;;;;;;;14.52;8.10;;;;;;;;;;5035098;28;20111;-79
2022/03/01 12:56:20;;;;;;;17.13;9.55;;;;;;;;;;5052918;28;20100;-80
2022/03/01 12:58:45;;;;;;;15.18;8.90;;;;;;;;;;5061867;28;20024;-80
2022/03/01 13:01:11;;;;;;;40.83;20.85;;;;;;;;;;5054558;28;20051;-82
2022/03/01 13:03:37;;;;;;;17.25;8.18;;;;;;;;;;5053186;28;20541;-79
2022/03/01 13:06:09;;;;;;;18.27;8.60;;;;;;;;;;5053666;28;20025;-79
2022/03/01 13:08:36;;;;;;;41.08;19.13;;;;;;;;;;5053628;28;20082;-80
2022/03/01 13:11:01;;;;;;;16.55;9.10;;;;;;;;;;5035903;28;20021;-80
2022/03/01 13:13:27;;;;;;;13.50;8.75;;;;;;;;;;5053876;28;20028;-82
2022/03/01 13:15:53;;;;;;;15.68;8.70;;;;;;;;;;5043233;28;20017;-80
2022/03/01 13:18:27;;;;;;;13.98;7.95;;;;;;;;;;5042177;28;20332;-77
2022/03/01 13:20:53;;;;;;;15.70;8.77;;;;;;;;;;5053709;28;20442;-78
2022/03/01 13:23:26;;;;;;;13.98;8.27;;;;;;;;;;5053391;28;20025;-77
2022/03/01 13:25:51;;;;;;;16.48;9.95;;;;;;;;;;5036909;28;20037;-76
2022/03/01 13:28:17;;;;;;;18.75;11.20;;;;;;;;;;5036249;28;20036;-77
2022/03/01 13:30:42;;;;;;;14.95;8.18;;;;;;;;;;5053167;28;20115;-77
2022/03/01 13:33:11;;;;;;;14.00;8.63;;;;;;;;;;5053112;28;20053;-76
2022/03/01 13:35:38;;;;;;;23.17;11.10;;;;;;;;;;5035588;28;20021;-79
2022/03/01 13:38:06;;;;;;;13.98;8.52;;;;;;;;;;5014377;28;20040;-79
2022/03/01 13:40:32;;;;;;;12.05;8.02;;;;;;;;;;5003615;28;20029;-79
2022/03/01 13:43:11;;;;;;;20.15;8.45;;;;;;;;;;5035657;28;20025;-79
2022/03/01 13:45:37;;;;;;;11.20;6.68;;;;;;;;;;5035766;28;20032;-79
2022/03/01 13:48:16;;;;;;;10.95;6.28;;;;;;;;;;5035966;28;20032;-78
2022/03/01 13:50:45;;;;;;;9.85;6.47;;;;;;;;;;5035626;28;20025;-78
2022/03/01 13:53:19;;;;;;;16.35;8.98;;;;;;;;;;5063753;28;20033;-80
2022/03/01 13:55:46;;;;;;;10.75;6.70;;;;;;;;;;5041697;28;20033;-79
2022/03/01 13:58:16;;;;;;;13.90;7.15;;;;;;;;;;5044614;28;20029;-79
2022/03/01 14:00:46;;;;;;;12.82;7.93;;;;;;;;;;5048453;28;20458;-79
2022/03/01 14:03:16;;;;;;;17.70;9.70;;;;;;;;;;5032943;28;20057;-78
2022/03/01 14:05:48;;;;;;;19.60;10.27;;;;;;;;;;5017408;28;20426;-78
2022/03/01 14:08:15;;;;;;;16.10;9.45;;;;;;;;;;5036824;28;20030;-79
2022/03/01 14:11:01;;;;;;;16.63;9.32;;;;;;;;;;5037090;28;20025;-79
2022/03/01 14:13:27;;;;;;;27.13;12.07;;;;;;;;;;5036762;28;20017;-79
2022/03/01 14:16:05;;;;;;;16.15;7.90;;;;;;;;;;5041157;28;20018;-79
2022/03/01 14:18:38;;;;;;;17.42;9.90;;;;;;;;;;5041724;28;20044;-78
2022/03/01 14:21:03;;;;;;;19.23;9.88;;;;;;;;;;5036574;28;20162;-79
2022/03/01 14:23:29;;;;;;;21.63;9.05;;;;;;;;;;5036866;28;20112;-79
2022/03/01 14:25:55;;;;;;;16.92;8.35;;;;;;;;;;5036735;28;20030;-78
2022/03/01 14:28:20;;;;;;;16.25;8.68;;;;;;;;;;5036925;28;20022;-79
2022/03/01 14:30:46;;;;;;;16.60;8.52;;;;;;;;;;5036722;28;20025;-79
2022/03/01 14:33:11;;;;;;;18.08;9.27;;;;;;;;;;5036826;28;20605;-77
2022/03/01 14:38:22;;;;;;;14.13;9.13;;;;;;;;;;5040789;28;20545;-78
2022/03/01 14:40:47;;;;;;;15.70;8.70;;;;;;;;;;5037206;28;20033;-79